createdAt,value
2023-05-05T00:00:12.093Z,9.69
2023-05-05T00:01:12.008Z,9.67
2023-05-05T00:02:12.045Z,9.70
2023-05-05T00:03:12.069Z,9.67
2023-05-05T00:04:12.056Z,9.67
2023-05-05T00:05:12.060Z,9.67
2023-05-05T00:06:11.998Z,9.70
2023-05-05T00:07:11.803Z,9.69
2023-05-05T00:08:11.940Z,9.69
2023-05-05T00:09:11.801Z,9.69
2023-05-05T00:10:11.925Z,9.65
2023-05-05T00:11:11.873Z,9.58
2023-05-05T00:12:11.972Z,9.57
2023-05-05T00:13:11.921Z,9.57
2023-05-05T00:14:11.922Z,9.54
2023-05-05T00:15:11.728Z,9.52
2023-05-05T00:16:11.898Z,9.54
2023-05-05T00:17:11.841Z,9.54
2023-05-05T00:18:11.849Z,9.55
2023-05-05T00:19:11.827Z,9.54
2023-05-05T00:20:11.875Z,9.52
2023-05-05T00:21:11.813Z,9.52
2023-05-05T00:22:11.597Z,9.43
2023-05-05T00:23:11.797Z,9.40
2023-05-05T00:24:11.668Z,9.36
2023-05-05T00:25:11.890Z,9.39
2023-05-05T00:26:12.813Z,9.39
2023-05-05T00:27:11.780Z,9.40
2023-05-05T00:28:11.556Z,9.43
2023-05-05T00:29:11.730Z,9.43
2023-05-05T00:30:12.667Z,9.47
2023-05-05T00:31:12.774Z,9.49
2023-05-05T00:32:11.570Z,9.46
2023-05-05T00:33:11.700Z,9.42
2023-05-05T00:34:11.741Z,9.54
2023-05-05T00:35:12.759Z,9.57
2023-05-05T00:36:11.672Z,9.57
2023-05-05T00:37:12.499Z,9.58
2023-05-05T00:38:11.574Z,9.61
2023-05-05T00:39:12.466Z,9.61
2023-05-05T00:40:12.742Z,9.59
2023-05-05T00:41:12.496Z,9.54
2023-05-05T00:42:12.713Z,9.51
2023-05-05T00:43:12.653Z,9.46
2023-05-05T00:44:11.575Z,9.46
2023-05-05T00:45:11.510Z,9.49
2023-05-05T00:46:11.561Z,9.55
2023-05-05T00:47:12.436Z,9.61
2023-05-05T00:48:12.724Z,9.64
2023-05-05T00:49:12.496Z,9.59
2023-05-05T00:50:12.524Z,9.61
2023-05-05T00:51:12.605Z,9.67
2023-05-05T00:52:12.343Z,9.72
2023-05-05T00:53:12.644Z,9.73
2023-05-05T00:54:12.331Z,9.72
2023-05-05T00:55:12.429Z,9.65
2023-05-05T00:56:12.363Z,9.64
2023-05-05T00:57:12.593Z,9.62
2023-05-05T00:58:11.282Z,9.59
2023-05-05T00:59:12.585Z,9.55
2023-05-05T01:00:12.327Z,9.51
2023-05-05T01:01:12.515Z,9.49
2023-05-05T01:02:12.294Z,9.43
2023-05-05T01:03:12.568Z,9.34
2023-05-05T01:04:12.314Z,9.28
2023-05-05T01:05:11.339Z,9.21
2023-05-05T01:06:11.446Z,9.15
2023-05-05T01:07:11.256Z,9.14
2023-05-05T01:08:11.266Z,9.08
2023-05-05T01:09:11.332Z,9.03
2023-05-05T01:10:19.847Z,8.99
2023-05-05T01:11:11.353Z,8.98
2023-05-05T01:12:11.322Z,8.93
2023-05-05T01:13:11.325Z,8.93
2023-05-05T01:14:11.379Z,8.91
2023-05-05T01:15:11.141Z,8.88
2023-05-05T01:16:11.401Z,8.87
2023-05-05T01:17:12.013Z,8.85
2023-05-05T01:18:12.195Z,8.84
2023-05-05T01:19:11.101Z,8.84
2023-05-05T01:20:11.241Z,8.78
2023-05-05T01:21:11.129Z,8.77
2023-05-05T01:22:11.172Z,8.77
2023-05-05T01:23:11.284Z,8.80
2023-05-05T01:24:10.966Z,8.78
2023-05-05T01:25:11.206Z,8.75
2023-05-05T01:26:10.992Z,8.73
2023-05-05T01:27:11.325Z,8.75
2023-05-05T01:28:10.951Z,8.78
2023-05-05T01:29:11.210Z,8.81
2023-05-05T01:30:10.961Z,8.78
2023-05-05T01:31:11.320Z,8.77
2023-05-05T01:32:11.048Z,8.78
2023-05-05T01:33:11.134Z,8.80
2023-05-05T01:34:11.128Z,8.80
2023-05-05T01:35:11.108Z,8.88
2023-05-05T01:36:10.982Z,8.93
2023-05-05T01:37:10.843Z,8.99
2023-05-05T01:38:11.043Z,9.02
2023-05-05T01:39:10.752Z,9.05
2023-05-05T01:40:10.949Z,9.02
2023-05-05T01:41:10.850Z,9.02
2023-05-05T01:42:10.991Z,9.00
2023-05-05T01:43:10.921Z,8.99
2023-05-05T01:44:11.111Z,8.95
2023-05-05T01:45:10.823Z,8.88
2023-05-05T01:46:11.106Z,8.77
2023-05-05T01:47:11.482Z,8.59
2023-05-05T01:48:11.035Z,8.45
2023-05-05T01:49:10.921Z,8.42
2023-05-05T01:50:10.868Z,8.30
2023-05-05T01:51:10.831Z,8.21
2023-05-05T01:52:10.637Z,8.15
2023-05-05T01:53:11.884Z,8.11
2023-05-05T01:54:10.668Z,8.15
2023-05-05T01:55:11.787Z,8.16
2023-05-05T01:56:10.597Z,8.21
2023-05-05T01:57:10.950Z,8.24
2023-05-05T01:58:10.753Z,8.29
2023-05-05T01:59:10.828Z,8.33
2023-05-05T02:00:11.053Z,8.36
2023-05-05T02:01:10.845Z,8.42
2023-05-05T02:02:10.634Z,8.42
2023-05-05T02:03:10.849Z,8.54
2023-05-05T02:04:10.708Z,8.52
2023-05-05T02:05:11.864Z,8.64
2023-05-05T02:06:10.727Z,8.67
2023-05-05T02:07:10.699Z,8.75
2023-05-05T02:08:11.657Z,8.78
2023-05-05T02:09:10.470Z,8.78
2023-05-05T02:10:11.785Z,8.73
2023-05-05T02:11:10.610Z,8.73
2023-05-05T02:12:10.770Z,8.77
2023-05-05T02:13:10.728Z,8.78
2023-05-05T02:14:10.684Z,8.75
2023-05-05T02:15:10.493Z,8.69
2023-05-05T02:16:11.606Z,8.72
2023-05-05T02:17:10.512Z,8.73
2023-05-05T02:18:10.592Z,8.77
2023-05-05T02:19:11.624Z,8.70
2023-05-05T02:20:11.611Z,8.62
2023-05-05T02:21:10.470Z,8.54
2023-05-05T02:22:10.692Z,8.49
2023-05-05T02:23:10.467Z,8.45
2023-05-05T02:24:10.350Z,8.42
2023-05-05T02:25:11.579Z,8.47
2023-05-05T02:26:10.383Z,8.52
2023-05-05T02:27:11.503Z,8.52
2023-05-05T02:28:10.465Z,8.60
2023-05-05T02:29:11.110Z,8.66
2023-05-05T02:30:11.462Z,8.64
2023-05-05T02:31:10.685Z,8.67
2023-05-05T02:32:10.414Z,8.66
2023-05-05T02:33:10.415Z,8.54
2023-05-05T02:34:11.569Z,8.49
2023-05-05T02:35:11.365Z,8.51
2023-05-05T02:36:11.332Z,8.47
2023-05-05T02:37:11.284Z,8.47
2023-05-05T02:38:11.284Z,8.49
2023-05-05T02:39:10.146Z,8.54
2023-05-05T02:40:11.335Z,8.55
2023-05-05T02:41:10.273Z,8.57
2023-05-05T02:42:11.344Z,8.57
2023-05-05T02:43:11.415Z,8.60
2023-05-05T02:44:10.355Z,8.60
2023-05-05T02:45:11.225Z,8.64
2023-05-05T02:46:11.461Z,8.59
2023-05-05T02:47:11.152Z,8.57
2023-05-05T02:48:11.276Z,8.55
2023-05-05T02:49:11.354Z,8.52
2023-05-05T02:50:11.357Z,8.45
2023-05-05T02:51:10.202Z,8.45
2023-05-05T02:52:10.038Z,8.48
2023-05-05T02:53:10.201Z,8.54
2023-05-05T02:54:11.192Z,8.59
2023-05-05T02:55:11.193Z,8.57
2023-05-05T02:56:11.154Z,8.54
2023-05-05T02:57:11.134Z,8.49
2023-05-05T02:58:10.054Z,8.48
2023-05-05T02:59:10.094Z,8.42
2023-05-05T03:00:11.235Z,8.36
2023-05-05T03:01:11.111Z,8.31
2023-05-05T03:02:09.982Z,8.29
2023-05-05T03:03:10.109Z,8.26
2023-05-05T03:04:11.032Z,8.18
2023-05-05T03:05:11.061Z,8.20
2023-05-05T03:06:10.223Z,8.18
2023-05-05T03:07:10.860Z,8.23
2023-05-05T03:08:10.008Z,8.21
2023-05-05T03:09:09.824Z,8.29
2023-05-05T03:10:11.067Z,8.38
2023-05-05T03:11:10.814Z,8.39
2023-05-05T03:12:10.075Z,8.24
2023-05-05T03:13:10.979Z,7.98
2023-05-05T03:14:11.151Z,7.90
2023-05-05T03:15:10.940Z,7.90
2023-05-05T03:16:11.027Z,7.96
2023-05-05T03:17:09.961Z,7.98
2023-05-05T03:18:10.966Z,8.04
2023-05-05T03:19:09.870Z,8.11
2023-05-05T03:20:11.060Z,8.12
2023-05-05T03:21:09.889Z,8.13
2023-05-05T03:22:10.827Z,8.15
2023-05-05T03:23:10.822Z,8.16
2023-05-05T03:24:09.851Z,8.16
2023-05-05T03:25:10.829Z,8.15
2023-05-05T03:26:09.644Z,8.15
2023-05-05T03:27:11.022Z,8.05
2023-05-05T03:28:09.861Z,8.05
2023-05-05T03:29:10.790Z,8.05
2023-05-05T03:30:10.560Z,7.97
2023-05-05T03:31:10.795Z,7.94
2023-05-05T03:32:10.988Z,7.91
2023-05-05T03:33:10.849Z,7.93
2023-05-05T03:34:09.805Z,7.96
2023-05-05T03:35:10.769Z,8.04
2023-05-05T03:36:09.809Z,7.97
2023-05-05T03:37:10.548Z,8.01
2023-05-05T03:38:10.709Z,7.98
2023-05-05T03:39:10.755Z,7.98
2023-05-05T03:40:09.941Z,7.96
2023-05-05T03:41:09.679Z,7.94
2023-05-05T03:42:09.676Z,7.90
2023-05-05T03:43:10.541Z,7.90
2023-05-05T03:44:09.656Z,7.88
2023-05-05T03:45:09.526Z,7.88
2023-05-05T03:46:09.715Z,7.90
2023-05-05T03:47:09.665Z,7.90
2023-05-05T03:48:09.757Z,7.93
2023-05-05T03:49:10.588Z,7.91
2023-05-05T03:50:09.852Z,7.93
2023-05-05T03:51:09.510Z,7.98
2023-05-05T03:52:10.661Z,8.06
2023-05-05T03:53:10.529Z,8.13
2023-05-05T03:54:09.491Z,8.21
2023-05-05T03:55:10.495Z,8.24
2023-05-05T03:56:10.457Z,8.23
2023-05-05T03:57:09.543Z,8.21
2023-05-05T03:58:09.439Z,8.30
2023-05-05T03:59:09.531Z,8.34
2023-05-05T04:00:09.489Z,8.42
2023-05-05T04:01:10.432Z,8.44
2023-05-05T04:02:10.652Z,8.55
2023-05-05T04:03:09.582Z,8.59
2023-05-05T04:04:10.510Z,8.67
2023-05-05T04:05:10.527Z,8.70
2023-05-05T04:06:10.377Z,8.78
2023-05-05T04:07:10.225Z,8.85
2023-05-05T04:08:10.542Z,8.84
2023-05-05T04:09:10.193Z,8.82
2023-05-05T04:10:10.619Z,8.80
2023-05-05T04:11:10.194Z,8.87
2023-05-05T04:12:10.374Z,8.96
2023-05-05T04:13:10.444Z,9.00
2023-05-05T04:14:10.374Z,9.06
2023-05-05T04:15:10.241Z,9.03
2023-05-05T04:16:09.450Z,9.02
2023-05-05T04:17:09.544Z,8.85
2023-05-05T04:18:09.360Z,8.72
2023-05-05T04:19:09.452Z,8.59
2023-05-05T04:20:09.523Z,8.51
2023-05-05T04:21:09.265Z,8.26
2023-05-05T04:22:09.135Z,8.16
2023-05-05T04:23:09.238Z,8.18
2023-05-05T04:24:09.066Z,8.26
2023-05-05T04:25:09.286Z,8.26
2023-05-05T04:26:09.396Z,8.27
2023-05-05T04:27:09.162Z,8.34
2023-05-05T04:28:09.144Z,8.44
2023-05-05T04:29:09.112Z,8.51
2023-05-05T04:30:09.381Z,8.59
2023-05-05T04:31:09.218Z,8.73
2023-05-05T04:32:09.400Z,8.80
2023-05-05T04:33:09.224Z,8.80
2023-05-05T04:34:09.190Z,8.85
2023-05-05T04:35:09.171Z,8.95
2023-05-05T04:36:09.233Z,9.11
2023-05-05T04:37:08.895Z,9.25
2023-05-05T04:38:09.400Z,9.36
2023-05-05T04:39:08.864Z,9.54
2023-05-05T04:40:09.359Z,9.58
2023-05-05T04:41:09.733Z,9.69
2023-05-05T04:42:09.122Z,9.70
2023-05-05T04:43:08.985Z,9.73
2023-05-05T04:44:09.127Z,9.79
2023-05-05T04:45:08.847Z,9.86
2023-05-05T04:46:09.046Z,9.91
2023-05-05T04:47:09.004Z,9.95
2023-05-05T04:48:09.071Z,10.06
2023-05-05T04:49:08.893Z,10.10
2023-05-05T04:50:08.448Z,10.12
2023-05-05T04:51:09.534Z,10.18
2023-05-05T04:52:08.779Z,10.22
2023-05-05T04:53:08.922Z,10.34
2023-05-05T04:54:08.823Z,10.38
2023-05-05T04:55:08.948Z,10.41
2023-05-05T04:56:08.788Z,10.46
2023-05-05T04:57:08.999Z,10.53
2023-05-05T04:58:08.718Z,10.53
2023-05-05T04:59:09.883Z,10.48
2023-05-05T05:00:09.225Z,10.40
2023-05-05T05:01:08.850Z,10.49
2023-05-05T05:02:08.735Z,10.56
2023-05-05T05:03:08.878Z,10.52
2023-05-05T05:04:08.809Z,10.53
2023-05-05T05:05:08.835Z,10.56
2023-05-05T05:06:07.995Z,10.54
2023-05-05T05:07:08.586Z,10.67
2023-05-05T05:08:08.835Z,10.77
2023-05-05T05:09:08.644Z,10.82
2023-05-05T05:10:08.905Z,10.75
2023-05-05T05:11:09.002Z,10.82
2023-05-05T05:12:08.791Z,10.74
2023-05-05T05:13:10.079Z,10.65
2023-05-05T05:14:08.723Z,10.75
2023-05-05T05:15:08.558Z,10.85
2023-05-05T05:16:07.914Z,10.85
2023-05-05T05:17:08.593Z,10.90
2023-05-05T05:18:08.694Z,11.01
2023-05-05T05:19:07.816Z,11.08
2023-05-05T05:20:08.643Z,11.19
2023-05-05T05:21:08.584Z,11.35
2023-05-05T05:22:08.393Z,11.48
2023-05-05T05:23:08.535Z,11.63
2023-05-05T05:24:08.542Z,11.80
2023-05-05T05:25:08.563Z,12.22
2023-05-05T05:26:07.733Z,12.85
2023-05-05T05:27:10.186Z,13.49
2023-05-05T05:28:10.508Z,14.13
2023-05-05T05:29:07.715Z,14.55
2023-05-05T05:30:08.630Z,15.18
2023-05-05T05:31:08.553Z,15.77
2023-05-05T05:32:09.065Z,16.02
2023-05-05T05:33:08.684Z,16.44
2023-05-05T05:34:10.271Z,16.80
2023-05-05T05:35:09.519Z,17.16
2023-05-05T05:36:09.070Z,17.49
2023-05-05T05:37:07.642Z,17.85
2023-05-05T05:38:08.494Z,18.19
2023-05-05T05:39:07.652Z,18.28
2023-05-05T05:40:09.378Z,18.55
2023-05-05T05:41:07.630Z,18.52
2023-05-05T05:42:09.347Z,18.66
2023-05-05T05:43:09.361Z,18.77
2023-05-05T05:44:09.434Z,18.60
2023-05-05T05:45:07.551Z,18.46
2023-05-05T05:46:09.138Z,18.33
2023-05-05T05:47:07.585Z,18.46
2023-05-05T05:48:07.584Z,18.48
2023-05-05T05:49:08.382Z,18.48
2023-05-05T05:50:07.822Z,18.53
2023-05-05T05:51:08.416Z,18.26
2023-05-05T05:52:08.142Z,18.53
2023-05-05T05:53:07.498Z,18.68
2023-05-05T05:54:09.199Z,18.55
2023-05-05T05:55:09.050Z,18.41
2023-05-05T05:56:08.101Z,18.58
2023-05-05T05:57:08.200Z,18.52
2023-05-05T05:58:08.089Z,18.55
2023-05-05T05:59:07.370Z,18.52
2023-05-05T06:00:09.450Z,18.53
2023-05-05T06:01:08.988Z,18.16
2023-05-05T06:02:08.166Z,18.13
2023-05-05T06:03:08.373Z,17.80
2023-05-05T06:04:07.533Z,17.12
2023-05-05T06:05:08.581Z,16.96
2023-05-05T06:06:07.858Z,16.96
2023-05-05T06:07:07.898Z,16.64
2023-05-05T06:08:08.277Z,16.28
2023-05-05T06:09:07.928Z,15.88
2023-05-05T06:10:22.824Z,15.19
2023-05-05T06:11:09.145Z,14.96
2023-05-05T06:12:07.240Z,14.68
2023-05-05T06:13:08.653Z,14.58
2023-05-05T06:14:08.266Z,14.59
2023-05-05T06:15:07.209Z,14.56
2023-05-05T06:16:08.111Z,14.59
2023-05-05T06:17:07.241Z,14.79
2023-05-05T06:18:08.074Z,14.82
2023-05-05T06:19:07.157Z,14.65
2023-05-05T06:20:09.096Z,14.33
2023-05-05T06:21:08.672Z,14.41
2023-05-05T06:22:07.753Z,14.47
2023-05-05T06:23:07.451Z,14.56
2023-05-05T06:24:08.822Z,14.56
2023-05-05T06:25:07.995Z,14.44
2023-05-05T06:26:07.770Z,14.40
2023-05-05T06:27:07.065Z,14.53
2023-05-05T06:28:08.821Z,14.59
2023-05-05T06:29:07.100Z,14.65
2023-05-05T06:30:08.100Z,14.85
2023-05-05T06:31:07.969Z,14.96
2023-05-05T06:32:07.819Z,14.95
2023-05-05T06:33:08.573Z,15.06
2023-05-05T06:34:08.068Z,15.12
2023-05-05T06:35:06.992Z,15.04
2023-05-05T06:36:08.495Z,15.18
2023-05-05T06:37:08.219Z,15.46
2023-05-05T06:38:06.979Z,15.58
2023-05-05T06:39:07.571Z,15.73
2023-05-05T06:40:08.179Z,15.87
2023-05-05T06:41:07.750Z,15.58
2023-05-05T06:42:06.942Z,15.58
2023-05-05T06:43:08.769Z,15.60
2023-05-05T06:44:07.789Z,15.57
2023-05-05T06:45:06.890Z,15.60
2023-05-05T06:46:07.859Z,15.75
2023-05-05T06:47:07.792Z,15.76
2023-05-05T06:48:07.871Z,15.87
2023-05-05T06:49:07.634Z,15.72
2023-05-05T06:50:07.085Z,15.69
2023-05-05T06:51:07.581Z,15.97
2023-05-05T06:52:06.875Z,16.26
2023-05-05T06:53:07.714Z,16.34
2023-05-05T06:54:06.810Z,16.41
2023-05-05T06:55:07.648Z,16.08
2023-05-05T06:56:07.471Z,16.29
2023-05-05T06:57:07.635Z,16.31
2023-05-05T06:58:06.761Z,16.25
2023-05-05T06:59:07.799Z,16.16
2023-05-05T07:00:07.027Z,16.32
2023-05-05T07:01:08.436Z,16.51
2023-05-05T07:02:08.181Z,16.39
2023-05-05T07:03:07.753Z,16.43
2023-05-05T07:04:07.508Z,16.72
2023-05-05T07:05:07.343Z,17.16
2023-05-05T07:06:06.678Z,17.53
2023-05-05T07:07:08.282Z,17.45
2023-05-05T07:08:07.463Z,17.44
2023-05-05T07:09:06.621Z,17.38
2023-05-05T07:10:07.942Z,17.39
2023-05-05T07:11:07.312Z,17.33
2023-05-05T07:12:08.132Z,17.38
2023-05-05T07:13:07.704Z,17.14
2023-05-05T07:14:07.422Z,17.44
2023-05-05T07:15:19.205Z,17.82
2023-05-05T07:16:08.469Z,17.56
2023-05-05T07:17:07.313Z,17.48
2023-05-05T07:18:07.425Z,17.57
2023-05-05T07:19:07.305Z,17.46
2023-05-05T07:20:07.455Z,17.31
2023-05-05T07:21:07.279Z,17.20
2023-05-05T07:22:07.102Z,17.51
2023-05-05T07:23:07.244Z,17.67
2023-05-05T07:24:07.200Z,18.13
2023-05-05T07:25:07.343Z,18.59
2023-05-05T07:26:07.135Z,18.49
2023-05-05T07:27:06.444Z,18.09
2023-05-05T07:28:07.924Z,18.31
2023-05-05T07:29:07.330Z,18.23
2023-05-05T07:30:11.127Z,18.38
2023-05-05T07:31:07.786Z,18.68
2023-05-05T07:32:06.429Z,18.63
2023-05-05T07:33:07.206Z,18.37
2023-05-05T07:34:07.081Z,18.09
2023-05-05T07:35:06.930Z,18.35
2023-05-05T07:36:07.182Z,18.33
2023-05-05T07:37:06.390Z,18.52
2023-05-05T07:38:08.734Z,18.77
2023-05-05T07:39:06.331Z,18.63
2023-05-05T07:40:07.282Z,19.00
2023-05-05T07:41:07.121Z,19.19
2023-05-05T07:42:07.080Z,19.24
2023-05-05T07:43:07.080Z,19.59
2023-05-05T07:44:06.309Z,19.41
2023-05-05T07:45:06.965Z,19.63
2023-05-05T07:46:06.288Z,19.52
2023-05-05T07:47:07.626Z,19.48
2023-05-05T07:48:06.827Z,19.67
2023-05-05T07:49:06.990Z,19.81
2023-05-05T07:50:07.073Z,20.22
2023-05-05T07:51:06.929Z,20.34
2023-05-05T07:52:06.768Z,20.59
2023-05-05T07:53:14.484Z,20.50
2023-05-05T07:54:07.612Z,20.63
2023-05-05T07:55:07.077Z,20.37
2023-05-05T07:56:06.814Z,20.77
2023-05-05T07:57:06.107Z,20.77
2023-05-05T07:58:06.778Z,20.75
2023-05-05T07:59:06.938Z,20.62
2023-05-05T08:00:07.076Z,21.06
2023-05-05T08:01:07.172Z,21.32
2023-05-05T08:02:06.862Z,21.82
2023-05-05T08:03:09.730Z,22.20
2023-05-05T08:04:06.935Z,22.50
2023-05-05T08:05:07.013Z,22.87
2023-05-05T08:06:06.834Z,22.90
2023-05-05T08:07:06.749Z,22.65
2023-05-05T08:08:06.768Z,23.17
2023-05-05T08:09:06.609Z,23.17
2023-05-05T08:10:06.843Z,23.70
2023-05-05T08:11:06.918Z,24.52
2023-05-05T08:12:06.767Z,24.85
2023-05-05T08:13:06.820Z,24.17
2023-05-05T08:14:05.953Z,23.80
2023-05-05T08:15:08.150Z,23.76
2023-05-05T08:16:07.375Z,24.18
2023-05-05T08:17:06.626Z,24.17
2023-05-05T08:18:05.953Z,23.48
2023-05-05T08:19:17.703Z,23.28
2023-05-05T08:20:07.470Z,23.48
2023-05-05T08:21:05.874Z,23.90
2023-05-05T08:22:06.440Z,24.07
2023-05-05T08:23:06.783Z,24.44
2023-05-05T08:24:06.667Z,24.43
2023-05-05T08:25:07.009Z,24.73
2023-05-05T08:26:05.788Z,24.65
2023-05-05T08:27:07.544Z,25.08
2023-05-05T08:28:06.476Z,24.93
2023-05-05T08:29:05.787Z,25.19
2023-05-05T08:30:07.383Z,25.77
2023-05-05T08:31:06.933Z,26.33
2023-05-05T08:32:05.749Z,26.71
2023-05-05T08:33:07.655Z,27.32
2023-05-05T08:34:06.813Z,27.18
2023-05-05T08:35:05.815Z,26.80
2023-05-05T08:36:07.251Z,26.31
2023-05-05T08:37:07.151Z,26.00
2023-05-05T08:38:05.696Z,25.74
2023-05-05T08:39:07.637Z,25.40
2023-05-05T08:40:07.113Z,25.69
2023-05-05T08:41:06.363Z,25.35
2023-05-05T08:42:05.791Z,25.33
2023-05-05T08:43:06.567Z,25.63
2023-05-05T08:44:06.523Z,25.56
2023-05-05T08:45:06.641Z,25.82
2023-05-05T08:46:06.611Z,25.66
2023-05-05T08:47:06.371Z,25.43
2023-05-05T08:48:05.722Z,25.74
2023-05-05T08:49:06.329Z,26.71
2023-05-05T08:50:05.566Z,26.99
2023-05-05T08:51:06.417Z,27.11
2023-05-05T08:52:06.456Z,27.24
2023-05-05T08:53:07.450Z,27.14
2023-05-05T08:54:07.130Z,25.60
2023-05-05T08:55:05.608Z,25.69
2023-05-05T08:56:06.187Z,25.66
2023-05-05T08:57:06.288Z,25.75
2023-05-05T08:58:05.489Z,26.37
2023-05-05T08:59:07.130Z,27.15
2023-05-05T09:00:06.575Z,27.33
2023-05-05T09:01:06.333Z,27.34
2023-05-05T09:02:06.252Z,27.17
2023-05-05T09:03:05.530Z,27.68
2023-05-05T09:04:06.239Z,27.61
2023-05-05T09:05:05.543Z,27.51
2023-05-05T09:06:06.927Z,27.07
2023-05-05T09:07:06.065Z,27.51
2023-05-05T09:08:06.146Z,26.74
2023-05-05T09:09:06.030Z,26.57
2023-05-05T09:10:06.156Z,27.02
2023-05-05T09:11:05.387Z,27.67
2023-05-05T09:12:06.114Z,28.23
2023-05-05T09:13:06.017Z,28.67
2023-05-05T09:14:06.099Z,28.97
2023-05-05T09:15:05.524Z,28.72
2023-05-05T09:16:06.049Z,28.41
2023-05-05T09:17:06.008Z,28.72
2023-05-05T09:18:05.295Z,28.73
2023-05-05T09:19:05.957Z,28.69
2023-05-05T09:20:05.252Z,28.39
2023-05-05T09:21:06.028Z,28.35
2023-05-05T09:22:05.806Z,28.97
2023-05-05T09:23:05.960Z,28.36
2023-05-05T09:24:08.357Z,28.42
2023-05-05T09:25:06.397Z,29.19
2023-05-05T09:26:05.939Z,29.75
2023-05-05T09:27:05.989Z,30.31
2023-05-05T09:28:05.859Z,30.78
2023-05-05T09:29:05.942Z,31.02
2023-05-05T09:30:05.868Z,30.82
2023-05-05T09:31:05.962Z,31.12
2023-05-05T09:32:06.024Z,31.03
2023-05-05T09:33:05.458Z,30.63
2023-05-05T09:34:05.887Z,30.66
2023-05-05T09:35:05.135Z,30.50
2023-05-05T09:36:06.539Z,30.07
2023-05-05T09:37:05.669Z,30.06
2023-05-05T09:38:05.096Z,28.38
2023-05-05T09:39:05.665Z,28.36
2023-05-05T09:40:06.349Z,28.98
2023-05-05T09:41:06.618Z,28.95
2023-05-05T09:42:05.891Z,29.41
2023-05-05T09:43:06.509Z,29.23
2023-05-05T09:44:05.937Z,29.09
2023-05-05T09:45:06.527Z,28.54
2023-05-05T09:46:04.992Z,28.41
2023-05-05T09:47:14.783Z,28.98
2023-05-05T09:48:05.784Z,28.91
2023-05-05T09:49:05.770Z,29.20
2023-05-05T09:50:06.507Z,29.83
2023-05-05T09:51:05.649Z,30.37
2023-05-05T09:52:06.230Z,31.00
2023-05-05T09:53:06.570Z,31.15
2023-05-05T09:54:06.187Z,30.56
2023-05-05T09:55:05.727Z,30.21
2023-05-05T09:56:06.132Z,29.13
2023-05-05T09:57:05.398Z,28.94
2023-05-05T09:58:06.363Z,29.78
2023-05-05T09:59:04.829Z,30.18
2023-05-05T10:00:05.676Z,30.50
2023-05-05T10:01:04.952Z,30.39
2023-05-05T10:02:05.477Z,30.89
2023-05-05T10:03:06.257Z,31.15
2023-05-05T10:04:06.265Z,30.89
2023-05-05T10:05:06.634Z,30.93
2023-05-05T10:06:06.446Z,31.46
2023-05-05T10:07:06.060Z,31.21
2023-05-05T10:08:05.427Z,31.51
2023-05-05T10:09:06.015Z,31.60
2023-05-05T10:10:04.734Z,31.70
2023-05-05T10:11:06.033Z,31.40
2023-05-05T10:12:04.697Z,31.06
2023-05-05T10:13:04.798Z,31.04
2023-05-05T10:14:05.615Z,30.85
2023-05-05T10:15:06.450Z,31.02
2023-05-05T10:16:06.035Z,29.79
2023-05-05T10:17:06.294Z,28.86
2023-05-05T10:18:08.000Z,28.36
2023-05-05T10:19:06.044Z,28.29
2023-05-05T10:20:05.464Z,28.86
2023-05-05T10:21:05.966Z,29.28
2023-05-05T10:22:04.587Z,29.87
2023-05-05T10:23:05.387Z,29.55
2023-05-05T10:24:05.181Z,27.99
2023-05-05T10:25:05.438Z,28.24
2023-05-05T10:26:05.500Z,29.23
2023-05-05T10:27:05.809Z,29.16
2023-05-05T10:28:05.147Z,28.69
2023-05-05T10:29:05.398Z,28.79
2023-05-05T10:30:04.515Z,29.36
2023-05-05T10:31:16.204Z,29.69
2023-05-05T10:32:21.425Z,29.48
2023-05-05T10:33:27.318Z,29.69
2023-05-05T10:34:05.411Z,28.48
2023-05-05T10:35:06.020Z,29.21
2023-05-05T10:36:06.020Z,29.26
2023-05-05T10:37:05.068Z,29.73
2023-05-05T10:38:05.876Z,29.90
2023-05-05T10:39:05.502Z,30.25
2023-05-05T10:40:05.201Z,30.70
2023-05-05T10:41:05.499Z,30.10
2023-05-05T10:42:06.184Z,29.85
2023-05-05T10:43:05.689Z,29.85
2023-05-05T10:44:05.122Z,29.73
2023-05-05T10:45:05.727Z,28.72
2023-05-05T10:46:05.737Z,28.73
2023-05-05T10:47:04.961Z,28.60
2023-05-05T10:48:05.991Z,28.58
2023-05-05T10:49:05.073Z,28.26
2023-05-05T10:50:05.719Z,27.68
2023-05-05T10:51:05.075Z,26.92
2023-05-05T10:52:05.623Z,26.82
2023-05-05T10:53:05.616Z,26.18
2023-05-05T10:54:06.253Z,25.88
2023-05-05T10:55:05.623Z,24.65
2023-05-05T10:56:04.853Z,24.15
2023-05-05T10:57:04.270Z,23.59
2023-05-05T10:58:05.650Z,23.70
2023-05-05T10:59:05.628Z,23.78
2023-05-05T11:00:06.353Z,23.63
2023-05-05T11:01:05.631Z,23.25
2023-05-05T11:02:05.534Z,23.07
2023-05-05T11:03:05.064Z,23.33
2023-05-05T11:04:04.900Z,23.34
2023-05-05T11:05:04.955Z,23.10
2023-05-05T11:06:05.777Z,23.02
2023-05-05T11:07:05.122Z,23.18
2023-05-05T11:08:04.168Z,23.13
2023-05-05T11:09:05.864Z,23.24
2023-05-05T11:10:04.996Z,23.20
2023-05-05T11:11:04.725Z,23.40
2023-05-05T11:12:04.156Z,23.38
2023-05-05T11:13:04.880Z,23.28
2023-05-05T11:14:04.889Z,23.06
2023-05-05T11:15:04.052Z,23.02
2023-05-05T11:16:05.339Z,22.88
2023-05-05T11:17:05.375Z,22.85
2023-05-05T11:18:07.398Z,22.90
2023-05-05T11:19:04.724Z,22.87
2023-05-05T11:20:04.020Z,22.87
2023-05-05T11:21:04.700Z,22.98
2023-05-05T11:22:04.458Z,22.99
2023-05-05T11:23:05.595Z,22.93
2023-05-05T11:24:04.911Z,22.80
2023-05-05T11:25:03.928Z,22.68
2023-05-05T11:26:04.666Z,22.72
2023-05-05T11:27:04.788Z,22.32
2023-05-05T11:28:04.549Z,22.29
2023-05-05T11:29:05.209Z,22.43
2023-05-05T11:30:13.090Z,22.35
2023-05-05T11:31:04.488Z,22.36
2023-05-05T11:32:03.799Z,22.40
2023-05-05T11:33:05.219Z,22.44
2023-05-05T11:34:04.080Z,22.50
2023-05-05T11:35:03.907Z,22.60
2023-05-05T11:36:06.505Z,22.65
2023-05-05T11:37:03.849Z,22.58
2023-05-05T11:38:04.949Z,22.54
2023-05-05T11:39:03.758Z,22.59
2023-05-05T11:40:05.797Z,22.30
2023-05-05T11:41:05.299Z,22.22
2023-05-05T11:42:09.463Z,22.20
2023-05-05T11:43:04.699Z,22.19
2023-05-05T11:44:05.210Z,22.30
2023-05-05T11:45:04.242Z,22.44
2023-05-05T11:46:03.766Z,22.44
2023-05-05T11:47:05.274Z,22.56
2023-05-05T11:48:03.776Z,22.59
2023-05-05T11:49:05.045Z,22.54
2023-05-05T11:50:04.486Z,22.65
2023-05-05T11:51:04.366Z,22.73
2023-05-05T11:52:04.471Z,22.62
2023-05-05T11:53:04.627Z,22.56
2023-05-05T11:54:04.451Z,22.41
2023-05-05T11:55:03.665Z,22.45
2023-05-05T11:56:05.252Z,22.45
2023-05-05T11:57:05.024Z,22.50
2023-05-05T11:58:04.974Z,22.56
2023-05-05T11:59:05.383Z,22.63
2023-05-05T12:00:03.771Z,22.66
2023-05-05T12:01:05.318Z,22.75
2023-05-05T12:02:04.987Z,22.73
2023-05-05T12:03:04.988Z,22.73
2023-05-05T12:04:05.065Z,22.77
2023-05-05T12:05:03.496Z,22.70
2023-05-05T12:06:05.371Z,22.43
2023-05-05T12:07:03.501Z,22.26
2023-05-05T12:08:04.808Z,22.28
2023-05-05T12:09:04.862Z,22.29
2023-05-05T12:10:04.798Z,22.23
2023-05-05T12:11:04.808Z,22.11
2023-05-05T12:12:04.670Z,22.15
2023-05-05T12:13:03.815Z,22.05
2023-05-05T12:14:03.778Z,22.10
2023-05-05T12:15:05.824Z,22.13
2023-05-05T12:16:04.405Z,22.25
2023-05-05T12:17:04.866Z,22.36
2023-05-05T12:18:04.234Z,22.26
2023-05-05T12:19:04.709Z,21.81
2023-05-05T12:20:04.159Z,21.84
2023-05-05T12:21:04.112Z,21.93
2023-05-05T12:22:03.360Z,22.10
2023-05-05T12:23:04.115Z,22.01
2023-05-05T12:24:04.040Z,22.10
2023-05-05T12:25:04.691Z,22.25
2023-05-05T12:26:04.010Z,22.33
2023-05-05T12:27:03.258Z,22.47
2023-05-05T12:28:04.097Z,22.54
2023-05-05T12:29:04.107Z,22.65
2023-05-05T12:30:03.988Z,22.70
2023-05-05T12:31:04.273Z,22.81
2023-05-05T12:32:04.130Z,22.84
2023-05-05T12:33:04.277Z,22.90
2023-05-05T12:34:03.932Z,22.87
2023-05-05T12:35:04.661Z,22.78
2023-05-05T12:36:03.983Z,22.75
2023-05-05T12:37:04.364Z,22.54
2023-05-05T12:38:03.964Z,22.45
2023-05-05T12:39:03.782Z,22.53
2023-05-05T12:40:03.861Z,22.48
2023-05-05T12:41:03.792Z,22.59
2023-05-05T12:42:04.010Z,22.59
2023-05-05T12:43:03.753Z,22.60
2023-05-05T12:44:03.131Z,22.59
2023-05-05T12:45:03.741Z,22.60
2023-05-05T12:46:03.927Z,22.72
2023-05-05T12:47:03.063Z,22.75
2023-05-05T12:48:03.972Z,22.81
2023-05-05T12:49:03.733Z,22.87
2023-05-05T12:50:03.835Z,22.85
2023-05-05T12:51:03.011Z,22.91
2023-05-05T12:52:04.132Z,22.93
2023-05-05T12:53:03.703Z,22.77
2023-05-05T12:54:03.647Z,22.66
2023-05-05T12:55:03.729Z,22.69
2023-05-05T12:56:03.579Z,22.75
2023-05-05T12:57:03.763Z,22.77
2023-05-05T12:58:03.627Z,22.68
2023-05-05T12:59:03.735Z,22.69
2023-05-05T13:00:03.008Z,22.63
2023-05-05T13:01:03.800Z,22.66